Forest City Municipal Airport
Thursday 5:30 PM
Weather Sunny
Temperature 81°
Dew Point 63°
Feels Like 82°
Relative Humidity 54
%
Visibility 10
mi
Pressure 1011.5
mb
Wind Direction WSW
Wind Speed 7
mph
Last Hour Precip 0.00
"
KFXY 302230Z AUTO 24006KT 10SM CLR 27/17 A2987 RMK AO2

Recent Observations

Time Present Weather Temp DP Feels RH% Vsby Pressure Ceiling Direction Speed Gust 1h Precip
5:30PM
VFR
81° 63° 82° 54
%
10
mi
1011.5
mb
None WSW 7
mph
0.00"
KFXY 302230Z AUTO 24006KT 10SM CLR 27/17 A2987 RMK AO2
5:25PM
VFR
82° 61° 83° 48
%
10
mi
1011.5
mb
None WSW 7
mph
0.00"
KFXY 302225Z AUTO 25006KT 10SM CLR 28/16 A2987 RMK AO2
5:20PM
VFR
82° 63° 83° 51
%
10
mi
1011.5
mb
None WSW 7
mph
0.00"
KFXY 302220Z AUTO 25006KT 10SM CLR 28/17 A2987 RMK AO2
5:15PM
VFR
81° 63° 82° 54
%
10
mi
1011.5
mb
None W 8
mph
0.00"
KFXY 302215Z AUTO 26007KT 10SM CLR 27/17 A2987 RMK AO2
5:10PM
VFR
81° 61° 81° 51
%
10
mi
1011.5
mb
None W 7
mph
0.00"
KFXY 302210Z AUTO 27006KT 10SM CLR 27/16 A2987 RMK AO2
5:05PM
VFR
82° 63° 83° 51
%
10
mi
1011.5
mb
None W 10
mph
0.00"
KFXY 302205Z AUTO 27009KT 10SM CLR 28/17 A2987 RMK AO2
5:00PM
VFR
81° 63° 82° 54
%
10
mi
1011.5
mb
None WSW 8
mph
0.00"
KFXY 302200Z AUTO 25007KT 10SM CLR 27/17 A2987 RMK AO2
4:55PM
VFR
81° 61° 81° 51
%
10
mi
1011.5
mb
None WSW 8
mph
0.00"
KFXY 302155Z AUTO 24007KT 210V270 10SM CLR 27/16 A2987 RMK AO2
4:50PM
VFR
82° 63° 83° 51
%
10
mi
1011.2
mb
None W 8
mph
0.00"
KFXY 302150Z AUTO 26007KT 10SM CLR 28/17 A2986 RMK AO2
4:45PM
VFR
81° 61° 81° 51
%
10
mi
1011.2
mb
None WSW 6
mph
0.00"
KFXY 302145Z AUTO 25005KT 10SM CLR 27/16 A2986 RMK AO2
4:40PM
VFR
81° 63° 82° 54
%
10
mi
1011.2
mb
None WSW 8
mph
0.00"
KFXY 302140Z AUTO 25007KT 10SM CLR 27/17 A2986 RMK AO2
4:35PM
VFR
82° 63° 83° 51
%
10
mi
1011.2
mb
None WSW 6
mph
0.00"
KFXY 302135Z AUTO 24005KT 10SM CLR 28/17 A2986 RMK AO2
4:30PM
VFR
81° 63° 82° 54
%
10
mi
1011.2
mb
None WSW 6
mph
0.00"
KFXY 302130Z AUTO 25005KT 10SM CLR 27/17 A2986 RMK AO2
4:25PM
VFR
81° 63° 82° 54
%
10
mi
1011.2
mb
None W 8
mph
0.00"
KFXY 302125Z AUTO 26007KT 10SM CLR 27/17 A2986 RMK AO2
4:20PM
VFR
81° 63° 82° 54
%
10
mi
1011.2
mb
None WSW 7
mph
0.00"
KFXY 302120Z AUTO 24006KT 10SM CLR 27/17 A2986 RMK AO2
4:15PM
VFR
81° 63° 82° 54
%
10
mi
1011.2
mb
None WSW 6
mph
0.00"
KFXY 302115Z AUTO 24005KT 10SM CLR 27/17 A2986 RMK AO2
4:10PM
VFR
81° 63° 82° 54
%
10
mi
1011.2
mb
None WSW 6
mph
0.00"
KFXY 302110Z AUTO 24005KT 10SM CLR 27/17 A2986 RMK AO2
4:05PM
VFR
81° 61° 81° 51
%
10
mi
1011.2
mb
None WSW 6
mph
0.00"
KFXY 302105Z AUTO 24005KT 10SM CLR 27/16 A2986 RMK AO2
4:00PM
VFR
81° 61° 81° 51
%
10
mi
1011.2
mb
None WSW 8
mph
0.00"
KFXY 302100Z AUTO 24007KT 10SM CLR 27/16 A2986 RMK AO2
3:55PM
VFR
81° 63° 82° 54
%
10
mi
1011.2
mb
None W 8
mph
0.00"
KFXY 302055Z AUTO 26007KT 10SM CLR 27/17 A2986 RMK AO2
Click here to show this page without METARs/TAFs included